Havre, MT (59501)

5:01 PM MST on December 21, 2014 (GMT -0700)
41 NOrth of Havre on HWY 232 | Change Station
CLOSE
Current Station
Personal Weather Station
Location: Havre, MT
Elevation: 2752 ft
Nearby Weather Stations

Elev 2752 ft 48.60 °N, 109.71 °W | Updated 56 minutes ago

Overcast
Overcast
38.1 °F
Feels Like 27 °F
N
24.7
Wind Variable Wind from NW
Gusts 24.7 mph

Today
High -- | Low -- °F
--% Chance of Precip.
Yesterday
High -- | Low -- °F
Precip. -- in
8:08 AM 4:25 PM
Waning Crescent, 0% visible
Pressure 29.54 in
Visibility 10.0 miles
Clouds Overcast 10000 ft
Windchill 27 °F
Dew Point 31 °F
Humidity 72%
Rainfall 0.00 in
Snow Depth Not available.
UV 0 out of 12
Pollen .10 out of 12
Air Quality Not available.
Flu Activity Not available.
METAR KHVR 212353Z AUTO 27017KT 10SM OVC100 05/M01 A2947 RMK AO2 PK WND 28027/2305 SLP001 T00501006 10061 20039 53034 $

More Conditions Fewer Conditions

Pressure 29.54 in
Visibility 10.0 miles
Clouds Overcast 10000 ft
Windchill 27 °F
Dew Point 31 °F
Humidity 72%
Rainfall 0.00 in
Snow Depth Not available.
UV 0 out of 12
Pollen .10 out of 12
Air Quality Not available.
Flu Activity Not available.
METAR KHVR 212353Z AUTO 27017KT 10SM OVC100 05/M01 A2947 RMK AO2 PK WND 28027/2305 SLP001 T00501006 10061 20039 53034 $

More Conditions Fewer Conditions

10-Day Weather Forecast

Almanac

Astronomy

Dec. 21, 2014 Rise Set
Actual Time
Civil Twilight
Nautical Twilight
Astronomical Twilight
Moon
Length of Visible Light
Length of Day
Tomorrow will be .
, % of the Moon is Illuminated

Today's Extremes

State Highs State Lows

Community

WunderPhotos

Upload Photos

1,779,509 photos uploaded!

WunderBlogs® & News

Nearby

Air Quality

  Air Quality AQ Index Pollutant
Not available.

Snow Depth

Station Depth Elevation

Earthquake Activity

City Distance Mag. Time & Date
Minimum magnitude displayed is 2.5.

Coastal Water Temperatures

Place Temperature

Nearby Weather Stations